Time;durP1;ratioP1;P1;durP2;ratioP2;P2;SDS_P1;SDS_P2;PMS_P1;PMS_P2;Temp;Humidity;BMP_temperature;BMP_pressure;BME280_temperature;BME280_humidity;BME280_pressure;Samples;Min_cycle;Max_cycle;Signal;HPM_P1;HPM_P2
2021/07/19 00:02:02;;;;;;;8.30;5.93;;;;;;;20.80;80.67;99695.97;5113794;28;20441;-73
2021/07/19 00:04:31;;;;;;;7.90;6.27;;;;;;;20.59;82.06;99699.81;5113394;28;20473;-74
2021/07/19 00:06:57;;;;;;;9.90;6.60;;;;;;;20.54;82.27;99690.34;5113825;28;20500;-73
2021/07/19 00:09:24;;;;;;;6.40;5.77;;;;;;;20.63;82.01;99694.06;5113285;28;20422;-73
2021/07/19 00:11:51;;;;;;;8.57;6.90;;;;;;;20.52;82.26;99693.22;5114154;28;20481;-72
2021/07/19 00:14:19;;;;;;;7.20;6.50;;;;;;;20.56;82.66;99693.78;5113653;28;20519;-73
2021/07/19 00:16:45;;;;;;;11.60;6.23;;;;;;;20.59;82.02;99699.81;5113516;28;20437;-73
2021/07/19 00:19:12;;;;;;;6.70;6.00;;;;;;;20.70;81.47;99697.91;5113775;28;20439;-74
2021/07/19 00:21:38;;;;;;;9.10;7.10;;;;;;;20.37;83.52;99697.44;5113006;28;20508;-74
2021/07/19 00:24:06;;;;;;;7.80;6.30;;;;;;;20.35;84.13;99694.88;5113126;28;20457;-74
2021/07/19 00:26:33;;;;;;;8.77;6.60;;;;;;;20.41;83.77;99697.00;5113982;28;20460;-71
2021/07/19 00:28:59;;;;;;;7.10;6.07;;;;;;;20.26;84.21;99697.63;5113259;28;20842;-73
2021/07/19 00:31:31;;;;;;;7.60;6.60;;;;;;;20.10;85.46;99690.03;5113115;28;20792;-73
2021/07/19 00:33:58;;;;;;;6.60;6.00;;;;;;;19.90;86.96;99697.41;5113915;28;20432;-72
2021/07/19 00:36:25;;;;;;;6.70;6.10;;;;;;;19.75;88.34;99697.03;5113346;28;20433;-72
2021/07/19 00:38:52;;;;;;;8.67;6.83;;;;;;;19.61;89.24;99692.84;5113667;28;20433;-72
2021/07/19 00:41:19;;;;;;;9.07;7.13;;;;;;;19.57;89.87;99694.13;5114057;28;20429;-72
2021/07/19 00:43:46;;;;;;;7.85;7.10;;;;;;;19.48;90.70;99692.28;5113288;28;20278;-72
2021/07/19 00:46:13;;;;;;;8.30;7.50;;;;;;;19.46;90.78;99686.94;5113631;28;20299;-73
2021/07/19 00:48:42;;;;;;;8.10;7.25;;;;;;;19.37;91.73;99688.66;5113714;28;20937;-72
2021/07/19 00:51:09;;;;;;;9.27;7.72;;;;;;;19.28;91.89;99700.44;5113125;28;20207;-73
2021/07/19 00:53:36;;;;;;;8.40;7.30;;;;;;;19.19;93.06;99684.91;5113507;28;20704;-73
2021/07/19 00:56:05;;;;;;;12.57;8.70;;;;;;;19.25;93.02;99700.75;5113526;28;20203;-73
2021/07/19 00:58:33;;;;;;;7.77;7.00;;;;;;;19.57;90.57;99691.41;5113298;28;20238;-73
2021/07/19 01:01:02;;;;;;;10.17;7.20;;;;;;;19.71;89.12;99685.53;5112876;28;20425;-72
2021/07/19 01:03:31;;;;;;;9.30;7.30;;;;;;;19.74;88.32;99692.56;5113052;28;20563;-73
2021/07/19 01:06:01;;;;;;;7.70;7.00;;;;;;;19.85;87.41;99678.72;5113140;28;20433;-73
2021/07/19 01:08:28;;;;;;;7.47;6.70;;;;;;;20.00;86.39;99690.06;5113085;28;20515;-73
2021/07/19 01:10:54;;;;;;;10.97;7.20;;;;;;;19.77;87.13;99689.56;5112889;28;20922;-74
2021/07/19 01:13:21;;;;;;;8.10;6.37;;;;;;;19.59;88.40;99686.66;5114383;28;20437;-74
2021/07/19 01:15:48;;;;;;;8.10;7.30;;;;;;;19.57;89.22;99692.25;5116503;28;20429;-72
2021/07/19 01:18:15;;;;;;;8.38;6.63;;;;;;;19.61;89.16;99687.38;5116753;28;20441;-72
2021/07/19 01:21:01;;;;;;;10.43;7.07;;;;;;;19.56;89.54;99679.63;5116354;28;20200;-73
2021/07/19 01:23:51;;;;;;;7.00;6.40;;;;;;;19.77;87.99;99679.47;5116221;28;20211;-73
2021/07/19 01:26:32;;;;;;;7.53;6.83;;;;;;;19.75;87.34;99684.22;5116442;28;20180;-73
2021/07/19 01:29:03;;;;;;;11.70;6.83;;;;;;;19.57;88.59;99681.34;5116813;28;20425;-73
2021/07/19 01:31:32;;;;;;;8.80;7.40;;;;;;;19.53;89.41;99682.63;5116522;28;20954;-73
2021/07/19 01:34:01;;;;;;;10.30;8.10;;;;;;;19.40;90.47;99681.19;5116843;28;20436;-72
2021/07/19 01:36:30;;;;;;;8.20;7.43;;;;;;;19.34;90.92;99678.03;5116623;28;20447;-72
2021/07/19 01:38:59;;;;;;;8.80;7.45;;;;;;;19.38;90.76;99681.38;5115465;28;20222;-74
2021/07/19 01:41:27;;;;;;;8.35;7.18;;;;;;;19.35;90.50;99674.28;5095915;28;20200;-74
2021/07/19 01:43:55;;;;;;;8.37;7.30;;;;;;;19.24;91.23;99679.03;5110455;28;20194;-73
2021/07/19 01:46:24;;;;;;;8.10;7.30;;;;;;;19.20;91.87;99674.84;5116207;28;20451;-73
2021/07/19 01:48:52;;;;;;;10.93;7.50;;;;;;;19.26;91.47;99677.03;5116054;28;20195;-72
2021/07/19 01:51:19;;;;;;;8.40;6.88;;;;;;;19.39;90.58;99683.06;5115698;28;20238;-73
2021/07/19 01:53:46;;;;;;;6.97;6.25;;;;;;;19.49;89.62;99678.47;5115535;28;20195;-72
2021/07/19 01:56:13;;;;;;;7.30;6.60;;;;;;;19.51;89.44;99667.41;5116185;28;20293;-72
2021/07/19 01:58:40;;;;;;;7.80;6.77;;;;;;;19.40;89.70;99673.00;5116006;28;20433;-73
2021/07/19 02:01:07;;;;;;;9.30;7.00;;;;;;;19.24;90.69;99674.44;5115585;28;20435;-73
2021/07/19 02:03:35;;;;;;;9.00;8.20;;;;;;;19.13;92.32;99675.44;5115711;28;20482;-73
2021/07/19 02:06:05;;;;;;;8.23;7.43;;;;;;;19.22;91.92;99671.00;5115472;28;20199;-73
2021/07/19 02:08:33;;;;;;;8.27;7.40;;;;;;;19.25;91.50;99670.72;5115746;28;20660;-73
2021/07/19 02:11:00;;;;;;;8.57;7.05;;;;;;;19.20;91.22;99670.28;5115534;28;20225;-73
2021/07/19 02:13:31;;;;;;;8.37;7.53;;;;;;;19.21;91.96;99673.88;5115465;28;20217;-73
2021/07/19 02:15:58;;;;;;;11.98;7.30;;;;;;;19.09;92.84;99673.16;5116032;28;20417;-73
2021/07/19 02:18:25;;;;;;;11.45;7.53;;;;;;;19.18;91.87;99672.28;5115683;28;20224;-73
2021/07/19 02:20:55;;;;;;;9.30;7.65;;;;;;;19.29;90.77;99674.88;5115105;28;20195;-72
2021/07/19 02:23:24;;;;;;;13.83;7.90;;;;;;;19.41;88.48;99674.75;5115548;28;20222;-74
2021/07/19 02:25:51;;;;;;;8.17;7.30;;;;;;;19.11;90.46;99680.19;5115559;28;20460;-74
2021/07/19 02:28:18;;;;;;;8.60;7.80;;;;;;;19.29;88.77;99672.16;5115148;28;20451;-72
2021/07/19 02:30:46;;;;;;;8.93;7.28;;;;;;;19.40;87.80;99679.31;5115061;28;20198;-73
2021/07/19 02:33:19;;;;;;;8.85;7.90;;;;;;;19.39;87.85;99677.59;5114651;28;20224;-73
2021/07/19 02:35:47;;;;;;;10.07;7.57;;;;;;;19.15;89.01;99684.38;5115489;28;20186;-73
2021/07/19 02:38:16;;;;;;;9.02;7.93;;;;;;;19.10;89.56;99685.78;5115007;28;20203;-73
2021/07/19 02:40:45;;;;;;;9.82;7.72;;;;;;;19.07;89.20;99680.63;5114952;28;20195;-72
2021/07/19 02:43:13;;;;;;;8.60;7.78;;;;;;;19.12;88.94;99672.84;5115163;28;20192;-73
2021/07/19 02:45:42;;;;;;;10.65;8.43;;;;;;;19.20;88.58;99681.22;5114731;28;20289;-73
2021/07/19 02:48:13;;;;;;;9.75;8.48;;;;;;;19.26;87.38;99677.03;5114236;28;20547;-73
2021/07/19 02:50:42;;;;;;;8.73;7.40;;;;;;;19.20;88.62;99674.84;5114673;28;20193;-72
2021/07/19 02:53:10;;;;;;;10.20;7.90;;;;;;;19.20;87.94;99686.66;5114462;28;20284;-73
2021/07/19 02:55:41;;;;;;;12.65;8.88;;;;;;;19.14;88.76;99679.91;5115201;28;20620;-74
2021/07/19 02:58:11;;;;;;;7.97;7.22;;;;;;;19.14;88.66;99682.63;5114544;28;20195;-74
2021/07/19 03:00:38;;;;;;;9.63;8.60;;;;;;;19.12;89.05;99676.44;5114539;28;20201;-73
2021/07/19 03:03:13;;;;;;;9.43;7.60;;;;;;;18.95;90.09;99682.63;5114276;28;20226;-73
2021/07/19 03:05:43;;;;;;;11.23;8.80;;;;;;;18.79;91.16;99682.25;5114464;28;20277;-72
2021/07/19 03:08:13;;;;;;;9.18;8.25;;;;;;;18.53;93.90;99677.28;5114781;28;20191;-72
2021/07/19 03:10:44;;;;;;;10.68;8.00;;;;;;;18.50;95.13;99669.41;5114445;28;20217;-73
2021/07/19 03:13:15;;;;;;;8.98;7.60;;;;;;;18.45;96.04;99678.00;5114383;28;20203;-73
2021/07/19 03:15:45;;;;;;;11.75;8.70;;;;;;;18.61;94.85;99682.03;5114283;28;20197;-73
2021/07/19 03:18:12;;;;;;;10.63;8.50;;;;;;;18.75;93.59;99674.34;5114086;28;20631;-72
2021/07/19 03:20:42;;;;;;;13.75;8.30;;;;;;;18.86;92.34;99681.59;5114139;28;20225;-73
2021/07/19 03:23:12;;;;;;;9.52;8.63;;;;;;;18.84;91.73;99674.56;5114355;28;20186;-73
2021/07/19 03:25:41;;;;;;;13.32;9.30;;;;;;;18.91;91.32;99687.47;5113849;28;20195;-72
2021/07/19 03:28:08;;;;;;;11.07;9.90;;;;;;;18.95;91.19;99683.47;5114597;28;20516;-73
2021/07/19 03:30:35;;;;;;;13.05;9.65;;;;;;;18.91;90.59;99676.56;5114286;28;20615;-73
2021/07/19 03:33:02;;;;;;;9.90;9.00;;;;;;;19.01;89.72;99679.31;5114172;28;20221;-73
2021/07/19 03:35:32;;;;;;;10.70;9.48;;;;;;;18.76;91.34;99683.38;5113782;28;20218;-73
2021/07/19 03:38:00;;;;;;;10.40;8.27;;;;;;;18.67;91.96;99692.41;5113614;28;20198;-72
2021/07/19 03:40:27;;;;;;;11.43;9.25;;;;;;;18.41;94.54;99687.44;5114080;28;20223;-73
2021/07/19 03:42:58;;;;;;;11.88;9.80;;;;;;;18.58;94.11;99687.78;5113616;28;20672;-74
2021/07/19 03:45:26;;;;;;;10.20;9.20;;;;;;;18.71;92.34;99689.25;5114313;28;20924;-72
2021/07/19 03:47:53;;;;;;;9.65;8.75;;;;;;;18.51;93.00;99688.31;5113835;28;20268;-73
2021/07/19 03:50:21;;;;;;;10.77;8.52;;;;;;;18.45;93.84;99690.75;5112104;28;20285;-73
2021/07/19 03:52:50;;;;;;;12.82;8.80;;;;;;;18.64;92.75;99689.97;5113831;28;20218;-71
2021/07/19 03:55:17;;;;;;;9.93;8.88;;;;;;;18.50;93.34;99692.06;5113977;28;20195;-73
2021/07/19 03:57:45;;;;;;;11.57;9.75;;;;;;;18.49;94.13;99695.78;5113980;28;20206;-73
2021/07/19 04:00:30;;;;;;;14.70;9.10;;;;;;;18.61;92.71;99695.66;5113517;28;20391;-73
2021/07/19 04:02:58;;;;;;;10.88;8.93;;;;;;;18.63;92.44;99688.22;5030955;28;20279;-73
2021/07/19 04:05:27;;;;;;;10.07;8.38;;;;;;;18.64;91.74;99688.09;5030722;28;20233;-73
2021/07/19 04:07:55;;;;;;;12.98;8.82;;;;;;;18.83;90.52;99691.91;5030411;28;20254;-74
2021/07/19 04:10:22;;;;;;;10.15;9.13;;;;;;;18.81;89.65;99689.31;5031166;28;20220;-74
2021/07/19 04:12:50;;;;;;;13.05;8.32;;;;;;;18.63;90.34;99688.22;5030997;28;20232;-73
2021/07/19 04:15:19;;;;;;;10.77;8.57;;;;;;;18.53;90.52;99690.91;5030721;28;20244;-73
2021/07/19 04:17:47;;;;;;;9.93;8.98;;;;;;;18.38;91.78;99695.00;5030598;28;20654;-74
2021/07/19 04:20:17;;;;;;;10.93;9.30;;;;;;;18.29;92.55;99685.78;5030620;28;20205;-74
2021/07/19 04:22:44;;;;;;;10.93;9.52;;;;;;;18.19;93.57;99685.75;5030811;28;20218;-73
2021/07/19 04:25:13;;;;;;;11.10;9.88;;;;;;;18.28;93.51;99684.94;5030978;28;20193;-73
2021/07/19 04:27:42;;;;;;;11.18;9.00;;;;;;;18.43;91.32;99687.28;5030191;28;20199;-71
2021/07/19 04:30:10;;;;;;;10.02;9.02;;;;;;;18.41;92.19;99683.84;5029831;28;20189;-73
2021/07/19 04:32:39;;;;;;;10.05;8.30;;;;;;;18.46;91.87;99676.13;5030363;28;20304;-73
2021/07/19 04:35:12;;;;;;;10.07;9.05;;;;;;;18.58;91.10;99682.31;5030447;28;20275;-73
2021/07/19 04:37:39;;;;;;;13.70;10.65;;;;;;;18.63;91.05;99689.09;5030734;28;20219;-72
2021/07/19 04:40:07;;;;;;;11.38;8.90;;;;;;;18.64;90.18;99681.78;5070804;28;20238;-72
2021/07/19 04:42:34;;;;;;;13.15;9.90;;;;;;;18.71;90.44;99672.03;5111899;28;20204;-73
2021/07/19 04:45:00;;;;;;;9.63;8.68;;;;;;;18.64;90.24;99679.06;5113051;28;20281;-73
2021/07/19 04:47:27;;;;;;;9.48;8.50;;;;;;;18.81;89.80;99675.66;5113309;28;20212;-72
2021/07/19 04:49:55;;;;;;;10.15;8.95;;;;;;;18.82;89.12;99682.00;5116689;28;20185;-73
2021/07/19 04:52:21;;;;;;;13.82;9.50;;;;;;;18.96;87.53;99677.00;5117026;28;20686;-73
2021/07/19 04:54:50;;;;;;;9.45;8.52;;;;;;;19.08;86.88;99682.31;5116699;28;20198;-74
2021/07/19 04:57:18;;;;;;;12.15;9.15;;;;;;;19.21;85.59;99677.47;5113443;28;20529;-74
2021/07/19 04:59:50;;;;;;;12.70;9.50;;;;;;;19.32;84.54;99688.25;5116644;28;20210;-73
2021/07/19 05:02:20;;;;;;;11.52;9.50;;;;;;;19.46;83.86;99684.22;5115732;28;20203;-73
2021/07/19 05:04:49;;;;;;;14.30;9.73;;;;;;;19.51;83.63;99683.78;5116721;28;20194;-74
2021/07/19 05:07:21;;;;;;;10.85;9.75;;;;;;;19.73;82.32;99688.97;5117169;28;20191;-73
2021/07/19 05:09:48;;;;;;;12.38;9.43;;;;;;;19.99;80.50;99688.38;5116914;28;20644;-73
2021/07/19 05:12:19;;;;;;;13.07;9.73;;;;;;;20.19;78.64;99695.50;5116519;28;20197;-72
2021/07/19 05:14:47;;;;;;;11.03;9.70;;;;;;;20.19;78.86;99700.09;5116477;28;20281;-73
2021/07/19 05:17:16;;;;;;;10.70;9.60;;;;;;;20.31;78.17;99695.31;5116895;28;20887;-74
2021/07/19 05:19:44;;;;;;;12.20;9.05;;;;;;;20.25;77.74;99690.44;5116949;28;20527;-74
2021/07/19 05:22:11;;;;;;;9.93;8.93;;;;;;;19.99;78.86;99691.09;5116621;28;20180;-73
2021/07/19 05:24:39;;;;;;;11.93;9.48;;;;;;;20.07;78.94;99693.94;5118401;27;20547;-73
2021/07/19 05:27:07;;;;;;;13.18;9.75;;;;;;;20.03;79.45;99697.97;5116460;28;20183;-73
2021/07/19 05:29:35;;;;;;;12.63;9.63;;;;;;;20.16;78.30;99698.50;5116833;28;20203;-73
2021/07/19 05:32:01;;;;;;;10.15;8.70;;;;;;;20.21;78.00;99700.81;5116084;28;20429;-73
2021/07/19 05:34:28;;;;;;;10.70;8.83;;;;;;;20.41;77.02;99698.88;5116661;28;20191;-74
2021/07/19 05:36:55;;;;;;;9.43;8.50;;;;;;;20.48;76.11;99694.50;5116195;28;20469;-73
2021/07/19 05:39:21;;;;;;;11.87;9.07;;;;;;;20.34;76.87;99684.94;5115956;28;20433;-73
2021/07/19 05:41:50;;;;;;;10.53;8.93;;;;;;;20.45;76.79;99688.50;5116090;28;20425;-73
2021/07/19 05:44:16;;;;;;;9.60;8.60;;;;;;;20.64;75.28;99687.56;5115961;28;20436;-73
2021/07/19 05:46:43;;;;;;;13.40;8.20;;;;;;;20.66;75.37;99691.88;5117362;27;20468;-73
2021/07/19 05:49:10;;;;;;;10.30;8.37;;;;;;;20.76;75.15;99687.22;5115568;28;20527;-73
2021/07/19 05:51:36;;;;;;;10.93;8.97;;;;;;;20.65;75.35;99689.31;5115694;28;20461;-73
2021/07/19 05:54:03;;;;;;;12.80;8.87;;;;;;;20.69;75.35;99687.97;5115227;28;20460;-74
2021/07/19 05:56:31;;;;;;;9.63;8.63;;;;;;;20.81;74.26;99686.78;5116422;28;20486;-72
2021/07/19 05:58:59;;;;;;;11.90;8.50;;;;;;;20.92;73.61;99693.91;5115582;28;20793;-73
2021/07/19 06:01:26;;;;;;;8.47;7.70;;;;;;;20.88;73.65;99679.66;5115253;28;20529;-72
2021/07/19 06:03:54;;;;;;;8.90;7.73;;;;;;;20.99;73.54;99689.53;5115568;28;20519;-73
2021/07/19 06:06:20;;;;;;;9.53;7.57;;;;;;;21.43;71.58;99679.56;5115330;28;20448;-74
2021/07/19 06:08:47;;;;;;;9.20;7.13;;;;;;;21.53;70.97;99684.13;5116296;28;20508;-73
2021/07/19 06:11:13;;;;;;;8.13;7.33;;;;;;;21.40;70.87;99677.16;5115185;28;20440;-74
2021/07/19 06:13:40;;;;;;;8.77;7.93;;;;;;;21.57;70.55;99677.28;5115537;28;21046;-74
2021/07/19 06:16:09;;;;;;;11.20;8.07;;;;;;;21.17;72.56;99689.56;5116000;28;20436;-73
2021/07/19 06:18:36;;;;;;;8.43;7.43;;;;;;;21.19;72.58;99693.00;5116174;28;20520;-73
2021/07/19 06:21:03;;;;;;;8.80;7.70;;;;;;;21.13;73.03;99691.75;5115991;28;20934;-74
2021/07/19 06:23:29;;;;;;;8.87;7.73;;;;;;;21.36;71.88;99689.41;5115105;28;20514;-73
2021/07/19 06:25:56;;;;;;;8.30;7.50;;;;;;;21.34;71.10;99696.91;5115047;28;20426;-74
2021/07/19 06:28:23;;;;;;;8.77;6.50;;;;;;;21.64;69.50;99695.69;5115157;28;20425;-73
2021/07/19 06:30:53;;;;;;;9.20;7.50;;;;;;;21.62;69.64;99699.63;5115248;28;20532;-72
2021/07/19 06:33:21;;;;;;;8.10;6.90;;;;;;;21.88;68.66;99696.06;5115185;28;20495;-74
2021/07/19 06:35:48;;;;;;;6.67;5.83;;;;;;;21.93;67.24;99691.78;5115424;28;20554;-72
2021/07/19 06:38:14;;;;;;;9.50;6.60;;;;;;;22.15;65.46;99687.66;5115587;28;20443;-73
2021/07/19 06:40:41;;;;;;;7.10;5.40;;;;;;;22.20;64.88;99687.19;5113228;28;20455;-72
2021/07/19 06:43:08;;;;;;;6.30;5.70;;;;;;;22.49;64.05;99693.22;5115898;28;20428;-74
2021/07/19 06:45:34;;;;;;;9.47;6.00;;;;;;;22.55;63.92;99683.47;5115530;28;20517;-74
2021/07/19 06:48:01;;;;;;;7.43;5.97;;;;;;;22.47;63.58;99694.41;5114742;28;20437;-74
2021/07/19 06:50:29;;;;;;;11.20;6.00;;;;;;;22.41;63.93;99684.97;5115546;28;20425;-72
2021/07/19 06:52:56;;;;;;;9.97;6.80;;;;;;;22.42;64.15;99683.06;5115283;27;20555;-72
2021/07/19 06:55:23;;;;;;;9.53;6.47;;;;;;;22.69;62.82;99688.34;5114003;28;20425;-72
2021/07/19 06:57:49;;;;;;;5.93;5.30;;;;;;;22.69;61.02;99688.34;5115003;28;20510;-73
2021/07/19 07:00:16;;;;;;;5.70;5.20;;;;;;;22.63;62.07;99688.13;5114411;28;20534;-73
2021/07/19 07:02:43;;;;;;;7.90;5.27;;;;;;;22.87;61.55;99690.13;5114124;28;20820;-73
2021/07/19 07:05:10;;;;;;;6.33;4.80;;;;;;;23.16;60.07;99694.38;5114288;28;20463;-73
2021/07/19 07:07:38;;;;;;;5.13;4.43;;;;;;;23.14;59.47;99697.28;5114543;28;20456;-73
2021/07/19 07:10:07;;;;;;;5.70;4.80;;;;;;;23.24;58.26;99692.47;5113770;28;20473;-74
2021/07/19 07:12:33;;;;;;;5.90;5.37;;;;;;;23.12;58.58;99687.50;5114810;28;20511;-73
2021/07/19 07:15:00;;;;;;;8.83;5.07;;;;;;;23.42;57.55;99684.09;5114720;28;20433;-73
2021/07/19 07:17:26;;;;;;;8.07;5.10;;;;;;;23.66;56.67;99682.41;5114712;28;20441;-73
2021/07/19 07:19:54;;;;;;;5.73;5.17;;;;;;;23.65;57.14;99680.69;5115232;28;20421;-75
2021/07/19 07:22:20;;;;;;;4.93;4.43;;;;;;;23.78;56.72;99671.94;5114619;28;20444;-74
2021/07/19 07:24:54;;;;;;;6.30;4.67;;;;;;;23.84;55.82;99682.25;5114521;28;20512;-74
2021/07/19 07:27:23;;;;;;;6.97;5.40;;;;;;;24.18;54.75;99676.53;5114320;28;20432;-73
2021/07/19 07:29:50;;;;;;;6.13;5.33;;;;;;;24.17;54.73;99673.97;5114359;28;20487;-72
2021/07/19 07:32:16;;;;;;;8.03;6.70;;;;;;;24.35;53.96;99680.97;5114142;28;20448;-75
2021/07/19 07:34:44;;;;;;;5.70;5.07;;;;;;;24.59;52.61;99676.44;5114396;28;20566;-74
2021/07/19 07:37:12;;;;;;;5.20;4.73;;;;;;;24.85;51.33;99672.53;5114041;28;20429;-74
2021/07/19 07:39:39;;;;;;;5.10;4.60;;;;;;;24.97;51.50;99674.72;5114000;28;20444;-73
2021/07/19 07:42:07;;;;;;;6.10;4.70;;;;;;;25.02;51.63;99678.84;5114280;28;20437;-73
2021/07/19 07:44:34;;;;;;;4.40;4.00;;;;;;;25.08;51.10;99673.47;5114046;28;20433;-74
2021/07/19 07:47:00;;;;;;;12.50;5.33;;;;;;;25.30;51.18;99670.94;5114246;28;20452;-73
2021/07/19 07:49:27;;;;;;;6.30;5.53;;;;;;;25.18;51.84;99664.97;5113925;28;20445;-72
2021/07/19 07:51:54;;;;;;;5.43;4.83;;;;;;;24.98;51.80;99679.19;5114011;28;20547;-72
2021/07/19 07:54:22;;;;;;;5.63;5.07;;;;;;;25.10;51.86;99665.88;5114023;28;20512;-73
2021/07/19 07:56:48;;;;;;;5.37;4.87;;;;;;;25.12;51.98;99676.69;5114176;28;20926;-74
2021/07/19 07:59:16;;;;;;;7.20;4.77;;;;;;;25.10;52.48;99665.00;5113372;28;20511;-73
2021/07/19 08:01:43;;;;;;;5.63;5.00;;;;;;;25.18;52.17;99670.47;5113264;28;20536;-73
2021/07/19 08:04:09;;;;;;;7.00;5.20;;;;;;;25.26;51.81;99667.69;5113699;28;20986;-75
2021/07/19 08:06:36;;;;;;;8.23;6.50;;;;;;;25.43;51.98;99664.81;5113804;28;20803;-73
2021/07/19 08:09:03;;;;;;;9.20;5.40;;;;;;;25.55;52.02;99664.22;5113472;28;20464;-73
2021/07/19 08:11:30;;;;;;;7.30;6.07;;;;;;;25.52;52.02;99656.28;5113242;28;20443;-74
2021/07/19 08:13:57;;;;;;;6.47;5.87;;;;;;;25.64;51.87;99661.38;5114029;28;21056;-73
2021/07/19 08:16:25;;;;;;;6.83;5.30;;;;;;;25.63;51.93;99652.25;5113606;28;20512;-73
2021/07/19 08:18:52;;;;;;;5.07;4.57;;;;;;;25.82;51.20;99663.81;5113836;28;20460;-73
2021/07/19 08:21:19;;;;;;;7.00;5.33;;;;;;;25.91;50.94;99658.06;5113697;28;20553;-74
2021/07/19 08:23:45;;;;;;;7.03;5.17;;;;;;;25.96;50.74;99655.59;5117535;28;20504;-74
2021/07/19 08:26:14;;;;;;;6.87;5.03;;;;;;;25.62;50.61;99661.59;5117575;28;20532;-74
2021/07/19 08:28:41;;;;;;;5.37;4.90;;;;;;;25.67;50.65;99652.75;5117882;28;20521;-73
2021/07/19 08:31:07;;;;;;;6.57;4.60;;;;;;;25.41;49.45;99665.00;5117712;28;20519;-74
2021/07/19 08:33:35;;;;;;;6.87;5.20;;;;;;;25.87;48.84;99658.56;5118115;28;20485;-74
2021/07/19 08:36:02;;;;;;;4.60;3.90;;;;;;;26.03;48.42;99652.97;5117825;28;21001;-72
2021/07/19 08:38:28;;;;;;;5.70;4.67;;;;;;;26.03;48.99;99652.06;5117849;28;20929;-74
2021/07/19 08:40:55;;;;;;;6.43;4.93;;;;;;;26.03;48.88;99649.31;5117479;28;20468;-73
2021/07/19 08:43:22;;;;;;;10.60;9.30;;;;;;;26.29;48.41;99660.78;5117698;28;20777;-74
2021/07/19 08:45:49;;;;;;;4.50;4.03;;;;;;;26.29;47.59;99644.22;5117182;28;20999;-73
2021/07/19 08:48:16;;;;;;;4.70;4.27;;;;;;;26.40;48.03;99657.53;5117580;28;20425;-73
2021/07/19 08:50:46;;;;;;;4.67;4.27;;;;;;;26.51;nan;99647.06;5117238;28;20521;-72
2021/07/19 08:53:13;;;;;;;6.27;5.57;;;;;;;26.82;45.72;99650.50;5117218;28;20500;-73
2021/07/19 08:55:40;;;;;;;4.03;3.63;;;;;;;26.53;45.10;99653.28;5117678;28;20423;-73
2021/07/19 08:58:09;;;;;;;4.40;3.83;;;;;;;26.49;44.75;99654.69;5117532;28;20425;-73
2021/07/19 09:00:38;;;;;;;5.13;4.23;;;;;;;26.82;44.87;99646.88;5116478;28;20460;-73
2021/07/19 09:03:06;;;;;;;9.87;4.47;;;;;;;26.80;44.79;99651.75;5117028;28;20460;-73
2021/07/19 09:05:32;;;;;;;4.37;3.97;;;;;;;26.81;45.08;99646.00;5117040;28;20460;-73
2021/07/19 09:08:00;;;;;;;7.83;4.27;;;;;;;26.94;43.78;99644.47;5117184;28;20750;-73
2021/07/19 09:10:28;;;;;;;6.00;4.27;;;;;;;26.85;44.29;99638.19;5116903;28;20441;-73
2021/07/19 09:12:58;;;;;;;4.40;3.80;;;;;;;26.97;44.39;99644.06;5117182;28;20508;-73
2021/07/19 09:15:36;;;;;;;7.60;4.87;;;;;;;27.01;43.95;99643.50;5116856;28;20469;-73
2021/07/19 09:18:04;;;;;;;4.03;3.73;;;;;;;27.10;44.14;99647.00;5116891;28;20906;-74
2021/07/19 09:20:33;;;;;;;9.33;4.40;;;;;;;27.01;44.71;99643.50;5116742;28;20941;-73
2021/07/19 09:23:01;;;;;;;4.67;4.17;;;;;;;26.52;45.43;99634.97;5117235;28;20523;-74
2021/07/19 09:25:28;;;;;;;4.20;3.60;;;;;;;26.77;44.89;99632.78;5116302;28;20486;-72
2021/07/19 09:27:58;;;;;;;5.50;4.20;;;;;;;26.78;46.89;99632.59;5116982;28;20425;-72
2021/07/19 09:30:26;;;;;;;7.17;4.43;;;;;;;26.29;47.33;99630.41;5117126;28;20914;-73
2021/07/19 09:33:01;;;;;;;5.67;4.07;;;;;;;26.35;46.64;99626.03;5115334;28;20425;-74
2021/07/19 09:35:29;;;;;;;4.33;3.90;;;;;;;26.63;45.71;99626.22;5114846;28;20456;-74
2021/07/19 09:37:56;;;;;;;3.93;3.60;;;;;;;26.48;44.66;99619.84;5116693;28;20464;-74
2021/07/19 09:40:28;;;;;;;4.67;3.60;;;;;;;26.71;44.25;99622.53;5115909;28;20435;-74
2021/07/19 09:42:55;;;;;;;3.90;3.60;;;;;;;26.41;45.67;99609.56;5115889;28;20440;-74
2021/07/19 09:45:29;;;;;;;5.07;4.57;;;;;;;26.59;46.90;99613.84;5116533;28;20429;-73
2021/07/19 09:48:05;;;;;;;4.97;4.47;;;;;;;26.70;46.52;99613.34;5115981;28;20767;-74
2021/07/19 09:50:40;;;;;;;4.40;3.73;;;;;;;26.68;46.52;99609.94;5115828;28;20449;-74
2021/07/19 09:53:07;;;;;;;5.17;3.97;;;;;;;26.86;46.11;99611.44;5115849;28;20429;-73
2021/07/19 09:55:36;;;;;;;4.20;3.73;;;;;;;26.92;44.22;99605.13;5115774;28;20473;-73
2021/07/19 09:58:04;;;;;;;6.10;3.37;;;;;;;27.02;44.30;99611.19;5115979;28;20442;-73
2021/07/19 10:00:32;;;;;;;6.90;5.67;;;;;;;27.19;44.02;99601.59;5116011;28;20880;-74
2021/07/19 10:02:59;;;;;;;3.80;3.03;;;;;;;26.98;43.34;99601.59;5115568;28;20484;-73
2021/07/19 10:05:27;;;;;;;4.23;3.40;;;;;;;26.44;43.89;99601.97;5115219;28;20919;-74
2021/07/19 10:07:54;;;;;;;4.30;2.87;;;;;;;26.40;42.80;99604.25;5114665;27;20528;-74
2021/07/19 10:10:33;;;;;;;2.90;2.60;;;;;;;26.52;42.45;99596.31;5115594;28;20461;-74
2021/07/19 10:13:02;;;;;;;3.07;2.57;;;;;;;26.57;40.49;99605.78;5116120;28;20439;-74
2021/07/19 10:15:30;;;;;;;6.87;3.30;;;;;;;26.61;40.40;99600.72;5115561;28;20556;-74
2021/07/19 10:17:57;;;;;;;6.57;3.80;;;;;;;27.18;39.69;99602.66;5115629;28;20451;-74
2021/07/19 10:20:24;;;;;;;3.40;2.53;;;;;;;26.99;38.75;99604.16;5115463;28;20458;-74
2021/07/19 10:22:52;;;;;;;5.67;2.93;;;;;;;26.92;40.04;99608.75;5115715;28;20878;-75
2021/07/19 10:25:19;;;;;;;3.13;2.67;;;;;;;27.12;38.14;99605.34;5115276;28;20429;-74
2021/07/19 10:27:47;;;;;;;3.53;2.60;;;;;;;26.72;37.16;99597.47;5115145;28;20421;-74
2021/07/19 10:30:16;;;;;;;3.73;2.80;;;;;;;27.19;37.67;99593.31;5115778;28;20523;-74
2021/07/19 10:32:42;;;;;;;3.53;2.40;;;;;;;27.60;36.86;99595.41;5115153;28;20753;-73
2021/07/19 10:35:10;;;;;;;3.13;2.17;;;;;;;27.23;36.67;99600.19;5115583;28;20858;-74
2021/07/19 10:37:40;;;;;;;3.73;2.13;;;;;;;27.07;36.97;99600.41;5114588;28;20437;-74
2021/07/19 10:40:12;;;;;;;3.07;2.60;;;;;;;27.02;38.38;99597.38;5115234;28;20456;-74
2021/07/19 10:42:41;;;;;;;2.93;2.23;;;;;;;27.06;38.91;99600.59;5115179;28;20440;-74
2021/07/19 10:45:09;;;;;;;4.97;2.47;;;;;;;26.99;39.01;99601.38;5113767;28;20467;-74
2021/07/19 10:47:48;;;;;;;4.23;2.00;;;;;;;27.17;38.48;99587.13;5114982;28;20953;-75
2021/07/19 10:50:17;;;;;;;9.00;2.70;;;;;;;27.18;38.16;99586.09;5114744;28;20496;-73
2021/07/19 10:52:44;;;;;;;3.60;2.37;;;;;;;27.32;38.04;99586.25;5114956;28;20468;-74
2021/07/19 10:55:24;;;;;;;3.70;2.53;;;;;;;27.31;38.13;99590.03;5114785;28;20475;-73
2021/07/19 10:58:00;;;;;;;3.80;2.67;;;;;;;27.66;37.55;99575.25;5114447;28;20441;-74
2021/07/19 11:00:27;;;;;;;4.20;2.60;;;;;;;27.64;38.56;99587.59;5113913;28;20443;-74
2021/07/19 11:03:02;;;;;;;3.57;2.80;;;;;;;27.91;38.46;99577.59;5114391;28;20476;-74
2021/07/19 11:05:34;;;;;;;3.93;2.77;;;;;;;27.59;39.42;99582.66;5114800;28;20446;-74
2021/07/19 11:08:01;;;;;;;3.90;2.87;;;;;;;27.63;39.27;99578.44;5114021;28;20517;-74
2021/07/19 11:10:28;;;;;;;4.07;2.47;;;;;;;27.62;39.54;99570.34;5114558;28;20935;-74
2021/07/19 11:12:57;;;;;;;3.73;3.23;;;;;;;27.62;39.86;99565.66;5114673;28;20439;-74
2021/07/19 11:15:35;;;;;;;3.10;2.80;;;;;;;27.55;39.76;99573.03;5114645;28;20945;-73
2021/07/19 11:18:15;;;;;;;8.53;2.90;;;;;;;27.28;39.44;99557.28;5114730;28;20504;-74
2021/07/19 11:20:43;;;;;;;3.10;2.80;;;;;;;27.32;39.38;99559.44;5113860;28;20950;-75
2021/07/19 11:23:11;;;;;;;4.50;2.80;;;;;;;27.54;39.54;99562.16;5113547;28;20436;-74
2021/07/19 11:25:42;;;;;;;4.47;3.23;;;;;;;27.49;40.43;99557.25;5109672;28;20469;-75
2021/07/19 11:28:20;;;;;;;4.00;2.90;;;;;;;27.49;40.29;99560.00;5113140;28;20425;-74
2021/07/19 11:31:02;;;;;;;3.27;2.80;;;;;;;27.43;40.77;99561.69;5112470;28;20429;-74
2021/07/19 11:33:36;;;;;;;3.93;2.40;;;;;;;27.24;41.25;99554.91;5113157;28;20529;-73
2021/07/19 11:36:04;;;;;;;4.67;3.43;;;;;;;27.23;41.26;99542.16;5111704;28;20472;-73
2021/07/19 11:38:39;;;;;;;2.93;2.50;;;;;;;27.32;41.08;99548.41;5113428;28;20528;-73